Time;durP1;ratioP1;P1;durP2;ratioP2;P2;SDS_P1;SDS_P2;PMS_P1;PMS_P2;Temp;Humidity;BMP_temperature;BMP_pressure;BME280_temperature;BME280_humidity;BME280_pressure;Samples;Min_cycle;Max_cycle;Signal;HPM_P1;HPM_P2
2022/09/22 00:01:39;;;;;;;7.85;1.17;;;9.40;99.90;;;;;;6277738;22;20023;-77
2022/09/22 00:04:07;;;;;;;6.22;1.75;;;9.40;99.90;;;;;;6305142;22;20030;-78
2022/09/22 00:06:46;;;;;;;4.57;1.08;;;9.40;99.90;;;;;;6278190;22;20026;-78
2022/09/22 00:09:15;;;;;;;5.07;1.40;;;9.40;99.90;;;;;;6252099;22;20030;-78
2022/09/22 00:11:47;;;;;;;7.18;1.70;;;9.40;99.90;;;;;;6305283;22;20019;-78
2022/09/22 00:14:39;;;;;;;8.38;1.60;;;9.30;99.90;;;;;;6278048;22;20019;-78
2022/09/22 00:17:05;;;;;;;7.90;1.90;;;9.30;99.90;;;;;;6300025;22;20019;-78
2022/09/22 00:19:35;;;;;;;5.32;1.80;;;9.40;99.90;;;;;;6304843;22;20452;-78
2022/09/22 00:22:03;;;;;;;4.40;1.80;;;9.40;99.90;;;;;;6277701;22;20054;-77
2022/09/22 00:24:30;;;;;;;6.60;1.90;;;9.40;99.90;;;;;;6305255;22;20080;-79
2022/09/22 00:26:57;;;;;;;6.50;2.47;;;9.40;99.90;;;;;;6277781;22;20028;-79
2022/09/22 00:29:25;;;;;;;10.07;2.75;;;9.40;99.90;;;;;;6305531;22;20023;-79
2022/09/22 00:31:51;;;;;;;4.57;1.70;;;9.40;99.90;;;;;;6277856;22;20037;-78
2022/09/22 00:34:21;;;;;;;5.47;1.80;;;9.30;99.90;;;;;;6278265;22;20031;-79
2022/09/22 00:36:49;;;;;;;5.63;2.25;;;9.40;99.90;;;;;;6305652;22;20019;-79
2022/09/22 00:39:16;;;;;;;11.82;3.78;;;9.40;99.90;;;;;;6277959;22;20400;-78
2022/09/22 00:41:45;;;;;;;7.55;2.78;;;9.40;99.90;;;;;;6305052;22;20050;-79
2022/09/22 00:44:17;;;;;;;5.90;2.40;;;9.30;99.90;;;;;;6305122;22;20102;-78
2022/09/22 00:46:46;;;;;;;9.07;3.53;;;9.30;99.90;;;;;;6279166;22;20076;-78
2022/09/22 00:49:14;;;;;;;8.63;3.22;;;9.40;99.90;;;;;;6306919;22;20023;-78
2022/09/22 00:51:43;;;;;;;5.35;2.97;;;9.30;99.90;;;;;;6306709;22;20027;-77
2022/09/22 00:54:14;;;;;;;8.32;3.90;;;9.30;99.90;;;;;;6307358;22;20015;-78
2022/09/22 00:56:56;;;;;;;6.38;3.67;;;9.30;99.90;;;;;;6253714;22;20019;-78
2022/09/22 00:59:24;;;;;;;7.18;3.45;;;9.30;99.90;;;;;;6253768;22;20027;-78
2022/09/22 01:01:51;;;;;;;12.77;5.53;;;9.30;99.90;;;;;;6306455;22;20035;-78
2022/09/22 01:04:17;;;;;;;9.30;6.55;;;9.30;99.90;;;;;;6278986;22;20106;-78
2022/09/22 01:06:44;;;;;;;8.05;4.85;;;9.40;99.90;;;;;;6306455;22;20386;-78
2022/09/22 01:09:11;;;;;;;12.10;5.43;;;9.40;99.90;;;;;;6306530;22;20098;-78
2022/09/22 01:11:38;;;;;;;13.63;7.00;;;9.40;99.90;;;;;;6281014;22;20098;-76
2022/09/22 01:14:30;;;;;;;12.63;6.45;;;9.40;99.90;;;;;;6253580;22;20447;-78
2022/09/22 01:17:33;;;;;;;11.48;6.15;;;9.30;99.90;;;;;;6279209;22;20031;-79
2022/09/22 01:20:39;;;;;;;16.52;8.27;;;9.40;99.90;;;;;;6279071;22;20057;-77
2022/09/22 01:23:32;;;;;;;11.45;7.45;;;9.40;99.90;;;;;;6306142;22;20515;-79
2022/09/22 01:26:13;;;;;;;15.25;8.80;;;9.40;99.90;;;;;;6306767;22;20440;-78
2022/09/22 01:29:10;;;;;;;12.98;8.77;;;9.40;99.90;;;;;;6278725;22;20072;-80
2022/09/22 01:31:48;;;;;;;13.27;8.68;;;9.30;99.90;;;;;;6306045;22;20027;-77
2022/09/22 01:34:27;;;;;;;13.23;8.85;;;9.30;99.90;;;;;;6305389;22;20118;-79
2022/09/22 01:36:57;;;;;;;21.27;10.68;;;9.30;99.90;;;;;;6306331;22;20080;-78
2022/09/22 01:39:33;;;;;;;15.80;9.90;;;9.30;99.90;;;;;;6278740;22;20019;-78
2022/09/22 01:42:08;;;;;;;15.82;10.05;;;9.30;99.90;;;;;;6279280;22;20080;-77
2022/09/22 01:44:47;;;;;;;17.08;10.23;;;9.30;99.90;;;;;;6306199;22;20468;-78
2022/09/22 01:47:18;;;;;;;15.63;9.40;;;9.30;99.90;;;;;;6278785;22;20054;-78
2022/09/22 01:50:01;;;;;;;15.07;8.73;;;9.30;99.90;;;;;;6305739;22;20027;-79
2022/09/22 01:52:31;;;;;;;12.65;8.65;;;9.20;99.90;;;;;;6306172;22;20317;-78
2022/09/22 01:55:10;;;;;;;17.90;10.02;;;9.20;99.90;;;;;;6306143;22;20094;-78
2022/09/22 01:57:39;;;;;;;15.43;10.18;;;9.20;99.90;;;;;;6306706;22;20093;-77
2022/09/22 02:00:08;;;;;;;12.70;8.15;;;9.20;99.90;;;;;;6278762;22;20025;-78
2022/09/22 02:02:46;;;;;;;18.98;11.02;;;9.20;99.90;;;;;;6306079;22;20352;-78
2022/09/22 02:05:17;;;;;;;18.77;10.57;;;9.20;99.90;;;;;;6306190;22;20372;-77
2022/09/22 02:07:49;;;;;;;20.45;9.40;;;9.10;99.90;;;;;;6252697;22;20070;-77
2022/09/22 02:10:19;;;;;;;18.02;11.13;;;9.10;99.90;;;;;;6252856;22;20019;-78
2022/09/22 02:12:48;;;;;;;19.40;9.95;;;9.10;99.90;;;;;;6279056;22;20158;-78
2022/09/22 02:18:08;;;;;;;15.23;10.30;;;9.10;99.90;;;;;;6305555;22;20015;-78
2022/09/22 02:20:34;;;;;;;17.13;11.75;;;9.10;99.90;;;;;;6278367;22;20038;-78
2022/09/22 02:23:00;;;;;;;15.02;10.10;;;9.10;99.90;;;;;;6252845;22;20094;-77
2022/09/22 02:25:27;;;;;;;16.13;8.55;;;9.00;99.90;;;;;;6252999;22;20063;-78
2022/09/22 02:27:55;;;;;;;18.33;8.95;;;9.00;99.90;;;;;;6278557;22;20020;-79
2022/09/22 02:30:22;;;;;;;12.88;7.40;;;9.00;99.90;;;;;;6305741;22;20080;-78
2022/09/22 02:32:51;;;;;;;12.85;7.35;;;9.00;99.90;;;;;;6278257;22;20030;-77
2022/09/22 02:35:17;;;;;;;17.38;8.27;;;8.90;99.90;;;;;;6305070;22;20025;-78
2022/09/22 02:37:53;;;;;;;12.63;8.88;;;8.90;99.90;;;;;;6278577;22;20023;-78
2022/09/22 02:40:37;;;;;;;15.10;8.73;;;8.90;99.90;;;;;;6305879;22;20061;-77
2022/09/22 02:43:36;;;;;;;14.50;9.05;;;8.90;99.90;;;;;;6305378;22;20023;-77
2022/09/22 02:46:44;;;;;;;14.25;8.73;;;8.90;99.90;;;;;;6211830;22;20058;-77
2022/09/22 02:49:15;;;;;;;13.68;9.68;;;8.80;99.90;;;;;;6155479;23;20100;-77
2022/09/22 02:51:42;;;;;;;9.55;7.00;;;8.80;99.90;;;;;;6284316;22;20455;-78
2022/09/22 02:54:08;;;;;;;11.70;7.75;;;8.80;99.90;;;;;;6277991;22;20504;-78
2022/09/22 02:56:34;;;;;;;14.93;9.38;;;8.80;99.90;;;;;;6277799;22;20031;-79
2022/09/22 02:59:00;;;;;;;10.40;7.50;;;8.70;99.90;;;;;;6277648;22;20030;-78
2022/09/22 03:01:26;;;;;;;13.30;8.88;;;8.70;99.90;;;;;;6305779;22;20422;-76
2022/09/22 03:03:52;;;;;;;10.77;6.90;;;8.70;99.90;;;;;;6279588;22;20022;-77
2022/09/22 03:06:18;;;;;;;11.90;7.32;;;8.70;99.90;;;;;;6305815;22;20019;-77
2022/09/22 03:08:44;;;;;;;11.52;7.57;;;8.70;99.90;;;;;;6304944;22;20417;-77
2022/09/22 03:11:09;;;;;;;11.38;7.22;;;8.60;99.90;;;;;;6305235;22;20055;-77
2022/09/22 03:13:35;;;;;;;9.75;7.00;;;8.60;99.90;;;;;;6277739;22;20118;-76
2022/09/22 03:16:01;;;;;;;10.00;5.60;;;8.60;99.90;;;;;;6305339;22;20034;-77
2022/09/22 03:18:27;;;;;;;10.02;6.55;;;8.60;99.90;;;;;;6306390;22;20072;-78
2022/09/22 03:20:53;;;;;;;9.18;6.32;;;8.50;99.90;;;;;;6277912;22;20030;-79
2022/09/22 03:23:19;;;;;;;10.10;6.38;;;8.50;99.90;;;;;;6305102;22;20523;-77
2022/09/22 03:25:45;;;;;;;8.88;5.72;;;8.60;99.90;;;;;;6277333;22;20038;-76
2022/09/22 03:28:11;;;;;;;11.93;5.75;;;8.50;99.90;;;;;;6305325;22;20019;-75
2022/09/22 03:30:39;;;;;;;10.15;6.35;;;8.50;99.90;;;;;;6277186;22;20149;-76
2022/09/22 03:33:05;;;;;;;11.27;6.80;;;8.50;99.90;;;;;;6277428;22;20092;-76
2022/09/22 03:35:31;;;;;;;10.63;6.20;;;8.50;99.90;;;;;;6278726;22;20023;-76
2022/09/22 03:37:57;;;;;;;9.55;5.07;;;8.40;99.90;;;;;;6277761;22;20027;-76
2022/09/22 03:40:23;;;;;;;8.25;5.30;;;8.50;99.90;;;;;;6305439;22;20027;-76
2022/09/22 03:42:49;;;;;;;11.55;6.60;;;8.40;99.90;;;;;;6278475;22;20464;-76
2022/09/22 03:45:15;;;;;;;9.45;5.38;;;8.40;99.90;;;;;;6252253;22;20019;-78
2022/09/22 03:47:41;;;;;;;7.50;4.85;;;8.40;99.90;;;;;;6251951;22;20031;-78
2022/09/22 03:50:08;;;;;;;12.77;6.18;;;8.40;99.90;;;;;;6305062;22;20030;-77
2022/09/22 03:52:34;;;;;;;11.32;5.15;;;8.30;99.90;;;;;;6278426;22;20023;-77
2022/09/22 03:55:01;;;;;;;7.75;4.80;;;8.30;99.90;;;;;;6277536;22;20148;-77
2022/09/22 03:57:28;;;;;;;9.40;5.20;;;8.30;99.90;;;;;;6306908;22;20586;-78
2022/09/22 03:59:54;;;;;;;8.48;5.78;;;8.30;99.90;;;;;;6277134;22;20023;-78
2022/09/22 04:02:19;;;;;;;11.10;5.75;;;8.30;99.90;;;;;;6304970;22;20019;-77
2022/09/22 04:04:48;;;;;;;10.27;5.43;;;8.30;99.90;;;;;;6305216;22;20057;-77
2022/09/22 04:07:14;;;;;;;11.80;5.15;;;8.30;99.90;;;;;;6304652;22;20034;-77
2022/09/22 04:09:40;;;;;;;10.48;5.07;;;8.20;99.90;;;;;;6251595;22;20023;-77
2022/09/22 04:12:07;;;;;;;9.15;4.70;;;8.20;99.90;;;;;;6255331;22;20019;-76
2022/09/22 04:14:33;;;;;;;11.68;5.00;;;8.20;99.90;;;;;;6279597;22;20076;-79
2022/09/22 04:17:36;;;;;;;7.45;4.25;;;8.20;99.90;;;;;;6251553;22;20043;-78
2022/09/22 04:20:07;;;;;;;8.05;4.90;;;8.10;99.90;;;;;;6277419;22;20020;-76
2022/09/22 04:22:33;;;;;;;6.22;3.85;;;8.10;99.90;;;;;;6279059;22;20090;-77
2022/09/22 04:24:59;;;;;;;8.35;4.88;;;8.10;99.90;;;;;;6254433;22;20467;-78
2022/09/22 04:27:25;;;;;;;8.77;4.28;;;8.10;99.90;;;;;;6307129;22;20045;-78
2022/09/22 04:29:51;;;;;;;10.02;5.00;;;8.10;99.90;;;;;;6306608;22;20648;-78
2022/09/22 04:32:17;;;;;;;8.32;4.10;;;8.10;99.90;;;;;;6279602;22;20117;-78
2022/09/22 04:34:43;;;;;;;5.63;3.88;;;8.00;99.90;;;;;;6278900;22;20027;-77
2022/09/22 04:37:10;;;;;;;7.53;4.20;;;8.10;99.90;;;;;;6279038;22;20057;-79
2022/09/22 04:39:36;;;;;;;7.55;4.60;;;8.10;99.90;;;;;;6306656;22;20027;-78
2022/09/22 04:42:02;;;;;;;5.85;3.80;;;8.10;99.90;;;;;;6278910;22;20021;-78
2022/09/22 04:44:28;;;;;;;7.40;4.22;;;8.10;99.90;;;;;;6306403;22;20023;-77
2022/09/22 04:46:56;;;;;;;5.28;3.90;;;8.00;99.90;;;;;;6279331;22;20031;-78
2022/09/22 04:49:22;;;;;;;6.05;4.18;;;8.00;99.90;;;;;;6253515;22;20026;-77
2022/09/22 04:51:49;;;;;;;7.82;4.82;;;8.00;99.90;;;;;;6306960;22;20347;-77
2022/09/22 04:54:15;;;;;;;6.25;3.50;;;8.00;99.90;;;;;;6307141;22;20023;-77
2022/09/22 04:56:41;;;;;;;9.55;4.18;;;8.00;99.90;;;;;;6278904;22;20502;-78
2022/09/22 04:59:07;;;;;;;8.48;4.25;;;7.90;99.90;;;;;;6279226;22;20443;-77
2022/09/22 05:01:34;;;;;;;7.32;3.97;;;7.90;99.90;;;;;;6307117;22;20384;-77
2022/09/22 05:04:00;;;;;;;7.05;4.32;;;7.90;99.90;;;;;;6306134;22;20352;-77
2022/09/22 05:06:27;;;;;;;6.45;3.83;;;7.90;99.90;;;;;;6278870;22;20030;-78
2022/09/22 05:08:52;;;;;;;6.20;4.10;;;7.90;99.90;;;;;;6279397;22;20022;-78
2022/09/22 05:11:20;;;;;;;8.55;3.83;;;7.90;99.90;;;;;;6306505;22;20344;-78
2022/09/22 05:13:46;;;;;;;7.60;3.72;;;7.90;99.90;;;;;;6278870;22;20059;-78
2022/09/22 05:16:12;;;;;;;8.00;3.92;;;7.80;99.90;;;;;;6306678;22;20034;-78
2022/09/22 05:18:38;;;;;;;9.18;4.03;;;7.90;99.90;;;;;;6227900;22;20054;-78
2022/09/22 05:21:06;;;;;;;5.60;3.17;;;7.80;99.90;;;;;;6306667;22;20074;-78
2022/09/22 05:23:32;;;;;;;6.82;2.97;;;7.80;99.90;;;;;;6278859;22;20072;-78
2022/09/22 05:25:58;;;;;;;5.43;3.28;;;7.80;99.90;;;;;;6278404;22;20034;-78
2022/09/22 05:28:24;;;;;;;5.78;3.50;;;7.80;99.90;;;;;;6306293;22;20023;-78
2022/09/22 05:30:50;;;;;;;8.88;3.90;;;7.80;99.90;;;;;;6278711;22;20459;-79
2022/09/22 05:33:17;;;;;;;6.63;3.90;;;7.80;99.90;;;;;;6305675;22;20072;-77
2022/09/22 05:35:43;;;;;;;9.95;4.10;;;7.90;99.90;;;;;;6278824;22;20030;-78
2022/09/22 05:38:09;;;;;;;11.20;4.03;;;7.80;99.90;;;;;;6306128;22;20061;-76
2022/09/22 05:40:35;;;;;;;5.60;3.20;;;7.90;99.90;;;;;;6278514;22;20359;-76
2022/09/22 05:43:01;;;;;;;5.57;3.40;;;7.80;99.90;;;;;;6305985;22;20027;-77
2022/09/22 05:45:27;;;;;;;8.73;3.97;;;7.80;99.90;;;;;;6278831;22;20019;-77
2022/09/22 05:47:53;;;;;;;6.50;3.45;;;7.80;99.90;;;;;;6305605;22;20507;-78
2022/09/22 05:50:22;;;;;;;8.15;3.85;;;7.80;99.90;;;;;;6306291;22;20112;-78
2022/09/22 05:52:48;;;;;;;7.25;3.40;;;7.90;99.90;;;;;;6305755;22;20023;-77
2022/09/22 05:55:14;;;;;;;5.15;3.45;;;7.90;99.90;;;;;;6252893;22;20027;-77
2022/09/22 05:57:42;;;;;;;7.68;3.72;;;7.90;99.90;;;;;;6306427;22;20097;-77
2022/09/22 06:00:10;;;;;;;11.52;3.83;;;8.00;99.90;;;;;;6278720;22;20073;-77
2022/09/22 06:02:35;;;;;;;7.35;3.67;;;8.00;99.90;;;;;;6305685;22;20034;-77
2022/09/22 06:05:01;;;;;;;8.43;3.30;;;8.00;99.90;;;;;;6278275;22;20016;-77
2022/09/22 06:07:27;;;;;;;8.02;3.30;;;8.00;99.90;;;;;;6305544;22;20027;-77
2022/09/22 06:09:53;;;;;;;8.50;4.22;;;8.00;99.90;;;;;;6305339;22;20455;-76
2022/09/22 06:12:19;;;;;;;6.93;3.83;;;8.10;99.90;;;;;;6305871;22;20027;-77
2022/09/22 06:14:45;;;;;;;8.18;4.40;;;8.10;99.90;;;;;;6278503;22;20070;-76
2022/09/22 06:17:12;;;;;;;10.20;3.95;;;8.20;99.90;;;;;;6305785;22;20054;-76
2022/09/22 06:19:39;;;;;;;13.82;4.50;;;8.20;99.90;;;;;;6305769;22;20019;-76
2022/09/22 06:22:05;;;;;;;12.20;5.40;;;8.30;99.90;;;;;;6252325;22;20031;-77
2022/09/22 06:24:31;;;;;;;11.45;4.80;;;8.40;99.90;;;;;;6278543;22;20347;-76
2022/09/22 06:26:57;;;;;;;8.68;4.68;;;8.50;99.90;;;;;;6306043;22;20027;-77
2022/09/22 06:29:23;;;;;;;9.10;4.43;;;8.50;99.90;;;;;;6305244;22;20020;-76
2022/09/22 06:31:50;;;;;;;7.32;3.85;;;8.60;99.90;;;;;;6305610;22;20023;-76
2022/09/22 06:34:17;;;;;;;10.15;4.28;;;8.70;99.90;;;;;;6252165;22;20027;-76
2022/09/22 06:36:44;;;;;;;12.68;5.00;;;8.70;99.90;;;;;;6278325;22;20065;-76
2022/09/22 06:39:10;;;;;;;7.43;3.65;;;8.80;99.90;;;;;;6278047;22;20019;-76
2022/09/22 06:41:36;;;;;;;7.93;4.65;;;8.90;99.90;;;;;;6306078;22;20076;-77
2022/09/22 06:44:04;;;;;;;8.82;4.22;;;9.00;99.90;;;;;;6252342;22;20021;-77
2022/09/22 06:46:32;;;;;;;6.65;3.70;;;9.00;99.90;;;;;;6277780;22;20077;-77
2022/09/22 06:49:01;;;;;;;11.02;4.65;;;9.10;99.90;;;;;;6277955;22;20027;-77
2022/09/22 06:51:32;;;;;;;13.00;4.38;;;9.20;99.90;;;;;;6252024;22;20401;-77
2022/09/22 06:54:00;;;;;;;10.07;4.70;;;9.40;99.90;;;;;;6278254;22;20019;-78
2022/09/22 06:56:27;;;;;;;10.05;4.78;;;9.50;99.90;;;;;;6278261;22;20026;-77
2022/09/22 06:58:57;;;;;;;10.70;4.80;;;9.70;99.90;;;;;;6252149;22;20016;-77
2022/09/22 07:01:23;;;;;;;15.60;4.22;;;9.80;99.90;;;;;;6277665;22;20030;-77
2022/09/22 07:03:50;;;;;;;7.10;4.13;;;10.00;99.90;;;;;;6277948;22;20031;-78
2022/09/22 07:06:17;;;;;;;11.35;4.63;;;10.20;99.90;;;;;;6277940;22;20023;-78
2022/09/22 07:08:47;;;;;;;12.73;5.88;;;10.40;99.90;;;;;;6252153;22;20023;-77
2022/09/22 07:11:22;;;;;;;10.82;4.75;;;10.50;99.90;;;;;;6305401;22;20030;-78
2022/09/22 07:13:52;;;;;;;11.73;4.85;;;10.70;99.90;;;;;;6277952;22;20019;-77
2022/09/22 07:16:20;;;;;;;10.48;4.63;;;10.90;99.90;;;;;;6277770;22;20068;-78
2022/09/22 07:18:48;;;;;;;9.18;3.95;;;11.10;99.90;;;;;;6304853;22;20761;-79
2022/09/22 07:21:22;;;;;;;10.02;4.57;;;11.20;99.90;;;;;;6304895;22;20369;-78
2022/09/22 07:23:50;;;;;;;7.22;4.10;;;11.40;99.90;;;;;;6251807;22;20015;-79
2022/09/22 07:26:25;;;;;;;8.60;4.38;;;11.50;99.90;;;;;;6276931;22;20034;-79
2022/09/22 07:28:53;;;;;;;10.35;3.92;;;11.70;99.90;;;;;;6277219;22;20027;-78
2022/09/22 07:31:19;;;;;;;7.70;3.55;;;11.80;99.90;;;;;;6304454;22;20020;-79
2022/09/22 07:33:45;;;;;;;10.30;4.10;;;12.00;99.90;;;;;;6304854;22;20023;-78
2022/09/22 07:36:20;;;;;;;7.70;3.75;;;12.10;99.90;;;;;;6304611;22;20023;-78
2022/09/22 07:38:50;;;;;;;;;;;12.20;99.90;;;;;;6305123;22;20460;-78
2022/09/22 07:41:18;;;;;;;8.70;3.38;;;12.30;99.90;;;;;;6305109;22;19979;-78
2022/09/22 07:43:45;;;;;;;8.23;3.90;;;12.40;99.90;;;;;;6276979;22;20037;-78
2022/09/22 07:46:14;;;;;;;7.90;2.80;;;12.50;99.90;;;;;;6276911;22;20555;-79
2022/09/22 07:48:45;;;;;;;9.88;4.03;;;12.60;99.90;;;;;;6251922;22;20098;-78
2022/09/22 07:51:20;;;;;;;7.78;2.80;;;12.70;99.90;;;;;;6304855;22;20030;-77
2022/09/22 07:53:53;;;;;;;7.18;2.92;;;12.70;99.90;;;;;;6304967;22;20474;-78
2022/09/22 07:56:22;;;;;;;6.40;3.30;;;12.80;99.90;;;;;;6277420;22;20023;-78
2022/09/22 07:58:55;;;;;;;9.35;3.08;;;13.00;99.90;;;;;;6305013;22;20015;-79
2022/09/22 08:01:25;;;;;;;8.98;3.15;;;13.00;99.90;;;;;;6251762;22;20023;-79
2022/09/22 08:03:51;;;;;;;9.45;3.00;;;13.10;99.90;;;;;;6304915;22;20019;-78
2022/09/22 08:06:18;;;;;;;7.65;2.60;;;13.20;99.90;;;;;;6276956;22;20239;-79
2022/09/22 08:08:52;;;;;;;8.02;3.33;;;13.20;99.90;;;;;;6278259;22;20019;-78
2022/09/22 08:11:21;;;;;;;7.93;3.53;;;13.30;99.90;;;;;;6277513;22;20019;-78
2022/09/22 08:13:52;;;;;;;6.30;2.60;;;13.40;99.90;;;;;;6304615;22;20285;-78
2022/09/22 08:16:21;;;;;;;8.02;2.58;;;13.60;99.90;;;;;;6276727;22;20029;-79
2022/09/22 08:18:53;;;;;;;8.13;2.50;;;13.60;99.90;;;;;;6277578;22;20027;-79
2022/09/22 08:21:19;;;;;;;10.88;3.25;;;13.70;99.90;;;;;;6305341;22;20086;-79
2022/09/22 08:23:45;;;;;;;6.10;2.50;;;13.80;99.90;;;;;;6304990;22;20019;-79
2022/09/22 08:26:11;;;;;;;8.43;2.97;;;13.90;99.90;;;;;;6277214;22;20058;-77
2022/09/22 08:28:37;;;;;;;7.55;2.63;;;14.00;99.90;;;;;;6304466;22;20031;-78
2022/09/22 08:31:09;;;;;;;6.43;2.03;;;14.10;99.90;;;;;;6251357;22;20038;-77
2022/09/22 08:33:35;;;;;;;6.90;2.53;;;14.20;99.90;;;;;;6276996;22;20023;-77
2022/09/22 08:36:02;;;;;;;10.02;2.50;;;14.30;99.90;;;;;;6277408;22;20525;-77
2022/09/22 08:38:31;;;;;;;6.55;1.83;;;14.50;99.90;;;;;;6277802;22;20377;-79
2022/09/22 08:41:16;;;;;;;11.95;3.67;;;14.60;99.90;;;;;;6304583;22;20023;-77
2022/09/22 08:44:00;;;;;;;9.70;2.58;;;14.80;99.90;;;;;;6305510;22;20023;-80
2022/09/22 08:46:28;;;;;;;6.80;2.05;;;14.90;99.90;;;;;;6305180;22;20020;-77
2022/09/22 08:52:34;;;;;;;6.25;2.15;;;15.10;99.90;;;;;;6264728;22;20030;-78
2022/09/22 08:55:01;;;;;;;5.50;1.90;;;15.30;99.90;;;;;;6304565;22;20058;-78
2022/09/22 08:57:33;;;;;;;7.20;1.80;;;15.40;99.90;;;;;;6277348;22;20050;-79
2022/09/22 09:00:05;;;;;;;6.40;2.03;;;15.50;99.90;;;;;;6252191;22;20023;-79
2022/09/22 09:02:39;;;;;;;7.28;2.75;;;15.70;99.90;;;;;;6251908;22;20051;-78
2022/09/22 09:05:50;;;;;;;7.57;2.25;;;15.80;99.90;;;;;;6277482;22;20027;-78
2022/09/22 09:08:49;;;;;;;5.18;2.08;;;15.90;99.90;;;;;;6248120;22;20057;-79
2022/09/22 09:11:57;;;;;;;5.95;1.70;;;16.00;99.90;;;;;;6306865;22;20019;-78
2022/09/22 09:14:22;;;;;;;5.30;2.63;;;16.30;99.90;;;;;;6290338;22;20019;-78
2022/09/22 09:17:21;;;;;;;6.55;1.77;;;16.50;99.90;;;;;;6278771;22;20042;-78
2022/09/22 09:19:52;;;;;;;3.83;1.40;;;16.50;99.90;;;;;;6238069;22;20023;-78
2022/09/22 09:22:24;;;;;;;8.45;2.35;;;16.60;99.90;;;;;;6278779;22;20023;-78
2022/09/22 09:25:02;;;;;;;4.57;1.55;;;16.70;99.90;;;;;;6306702;22;20026;-79
2022/09/22 09:27:33;;;;;;;5.70;2.00;;;16.90;99.90;;;;;;6255098;22;20153;-79
2022/09/22 09:30:10;;;;;;;7.28;1.73;;;17.00;99.60;;;;;;6306032;22;20082;-77
2022/09/22 09:32:59;;;;;;;7.40;1.70;;;17.20;99.10;;;;;;6306204;22;20024;-78
2022/09/22 09:35:45;;;;;;;4.57;1.50;;;17.40;98.90;;;;;;6278334;22;20626;-77
2022/09/22 09:38:13;;;;;;;4.05;1.40;;;17.60;98.50;;;;;;6278916;22;20026;-77
2022/09/22 09:40:40;;;;;;;6.32;1.42;;;17.80;99.20;;;;;;6279493;22;20050;-80
2022/09/22 09:43:07;;;;;;;7.55;1.70;;;17.80;98.70;;;;;;6307260;22;20028;-78
2022/09/22 09:46:07;;;;;;;4.07;1.60;;;18.00;98.20;;;;;;6306319;22;20026;-79
2022/09/22 09:49:13;;;;;;;5.97;1.40;;;18.30;97.60;;;;;;6279322;22;20016;-79
2022/09/22 09:51:43;;;;;;;6.93;1.80;;;18.50;96.80;;;;;;6301456;22;20023;-79
2022/09/22 09:54:13;;;;;;;2.75;1.38;;;18.40;96.90;;;;;;6279046;22;20058;-80
2022/09/22 09:57:11;;;;;;;5.00;1.58;;;18.50;96.90;;;;;;6278849;22;20016;-78
2022/09/22 10:02:47;;;;;;;6.43;1.60;;;18.80;95.10;;;;;;6278470;22;20038;-79
2022/09/22 10:05:16;;;;;;;5.93;1.70;;;18.90;95.50;;;;;;6305845;22;20344;-78
2022/09/22 10:07:43;;;;;;;6.47;1.33;;;18.90;95.50;;;;;;6278194;22;20347;-78
2022/09/22 10:10:28;;;;;;;6.38;1.80;;;19.20;95.50;;;;;;6305610;22;20055;-78
2022/09/22 10:12:57;;;;;;;4.13;1.23;;;19.40;94.60;;;;;;6279583;22;20068;-78
2022/09/22 10:15:25;;;;;;;4.07;1.27;;;19.40;94.30;;;;;;6306681;22;20019;-77
2022/09/22 10:17:51;;;;;;;3.30;1.20;;;19.50;94.00;;;;;;6252856;22;20031;-78
2022/09/22 10:20:30;;;;;;;8.68;1.77;;;19.60;93.80;;;;;;6252722;22;20023;-78
2022/09/22 10:23:22;;;;;;;7.57;1.80;;;19.40;92.80;;;;;;6279350;22;20486;-77
2022/09/22 10:25:51;;;;;;;3.80;1.05;;;19.50;91.30;;;;;;6307148;22;20341;-80
2022/09/22 10:28:20;;;;;;;3.88;1.30;;;19.60;92.30;;;;;;6306963;22;20529;-81
2022/09/22 10:31:03;;;;;;;6.13;1.50;;;19.70;91.30;;;;;;6306827;22;20310;-79
2022/09/22 10:33:30;;;;;;;6.40;1.63;;;19.80;90.70;;;;;;6306333;22;20078;-81
2022/09/22 10:36:10;;;;;;;8.27;1.45;;;19.90;90.60;;;;;;6306475;22;20019;-81
2022/09/22 10:38:43;;;;;;;5.32;1.55;;;20.30;90.70;;;;;;6306526;22;20029;-80
2022/09/22 10:41:26;;;;;;;7.13;1.50;;;20.40;90.60;;;;;;6306118;22;20088;-78
2022/09/22 10:43:58;;;;;;;8.93;1.52;;;20.80;90.50;;;;;;6305839;22;20030;-81
2022/09/22 10:46:48;;;;;;;6.35;1.17;;;20.90;90.10;;;;;;6305478;22;20062;-78
2022/09/22 10:49:29;;;;;;;6.28;1.48;;;20.70;89.00;;;;;;6305747;22;20434;-80
2022/09/22 10:52:25;;;;;;;4.22;1.00;;;21.10;88.90;;;;;;6277967;22;20088;-79
2022/09/22 10:54:57;;;;;;;4.03;1.10;;;21.40;87.00;;;;;;6306506;22;20027;-80
2022/09/22 10:57:29;;;;;;;6.25;1.73;;;21.60;87.90;;;;;;6305499;22;20026;-78
2022/09/22 11:00:18;;;;;;;5.50;1.17;;;21.60;84.10;;;;;;6305428;22;20123;-79
2022/09/22 11:03:02;;;;;;;4.80;1.20;;;21.80;84.40;;;;;;6278295;22;20097;-78
2022/09/22 11:14:50;;;;;;;7.50;2.00;;;22.60;81.50;;;;;;6277894;22;20031;-77
2022/09/22 11:17:37;;;;;;;7.55;1.73;;;23.00;79.40;;;;;;6251902;22;20530;-77
2022/09/22 11:20:33;;;;;;;4.57;1.55;;;23.40;80.90;;;;;;6252175;22;20023;-78
2022/09/22 11:23:29;;;;;;;9.65;2.33;;;23.10;76.80;;;;;;6305358;22;20019;-77
2022/09/22 11:26:09;;;;;;;7.60;2.30;;;23.90;75.10;;;;;;6277658;22;20027;-81
2022/09/22 11:29:24;;;;;;;5.93;2.42;;;24.30;72.80;;;;;;6278656;22;20023;-77
2022/09/22 11:32:08;;;;;;;8.35;2.13;;;24.50;72.70;;;;;;6305367;22;20076;-78
2022/09/22 11:35:14;;;;;;;8.13;2.28;;;25.10;74.20;;;;;;6277207;22;20031;-78
2022/09/22 11:38:17;;;;;;;6.00;2.40;;;24.90;72.00;;;;;;6278035;22;20447;-78
2022/09/22 11:41:23;;;;;;;6.05;2.42;;;24.60;69.90;;;;;;6304923;22;20121;-77
2022/09/22 11:44:12;;;;;;;5.68;2.63;;;25.30;70.90;;;;;;6302973;22;20397;-78
2022/09/22 11:46:56;;;;;;;5.57;2.15;;;25.40;66.10;;;;;;6304872;22;20085;-76
2022/09/22 11:49:54;;;;;;;6.70;2.50;;;25.90;66.70;;;;;;6305109;22;20027;-77
2022/09/22 11:52:49;;;;;;;7.50;2.80;;;26.10;65.60;;;;;;6277631;22;20019;-78
2022/09/22 11:55:39;;;;;;;7.45;2.58;;;25.70;64.70;;;;;;6305500;22;20019;-78
2022/09/22 11:58:13;;;;;;;8.45;2.45;;;25.90;67.50;;;;;;6305072;22;20024;-79
2022/09/22 12:00:48;;;;;;;7.80;2.13;;;26.20;68.30;;;;;;6277366;22;20021;-78
2022/09/22 12:03:38;;;;;;;8.35;2.88;;;26.80;63.30;;;;;;6305059;22;20027;-82
2022/09/22 12:06:09;;;;;;;8.00;3.13;;;26.50;59.70;;;;;;6277300;22;20419;-78
2022/09/22 12:08:45;;;;;;;6.68;2.15;;;26.70;60.80;;;;;;6304752;22;20075;-77
2022/09/22 12:11:13;;;;;;;8.23;2.50;;;27.10;61.30;;;;;;6304868;22;20590;-77
2022/09/22 12:13:42;;;;;;;6.57;2.10;;;27.70;63.00;;;;;;6277167;22;20023;-78
2022/09/22 12:16:40;;;;;;;7.28;2.38;;;28.70;59.40;;;;;;6304695;22;20027;-76
2022/09/22 12:19:18;;;;;;;4.78;2.35;;;28.90;56.90;;;;;;6211097;22;20027;-78
2022/09/22 12:21:56;;;;;;;4.90;2.25;;;28.50;56.10;;;;;;6277312;22;20023;-77
2022/09/22 12:24:23;;;;;;;4.15;2.40;;;29.30;55.00;;;;;;6277273;22;20023;-78
2022/09/22 12:26:50;;;;;;;7.45;2.47;;;30.00;53.60;;;;;;6277017;22;20019;-80
2022/09/22 12:29:22;;;;;;;4.72;1.98;;;30.10;52.40;;;;;;6304586;22;20406;-80
2022/09/22 12:31:51;;;;;;;6.22;1.92;;;30.30;51.70;;;;;;6304890;22;20538;-77
2022/09/22 12:34:20;;;;;;;8.85;2.97;;;30.10;50.40;;;;;;6246059;22;20099;-76
2022/09/22 12:36:47;;;;;;;5.75;2.20;;;30.50;49.90;;;;;;6273289;22;20448;-76
2022/09/22 12:39:17;;;;;;;5.85;2.35;;;30.40;49.00;;;;;;6273655;22;20379;-77
2022/09/22 12:41:46;;;;;;;6.00;2.30;;;29.90;49.10;;;;;;6273636;22;20027;-78
2022/09/22 12:44:17;;;;;;;5.65;2.63;;;29.60;50.80;;;;;;6273949;22;20019;-77
2022/09/22 12:46:44;;;;;;;7.82;3.13;;;30.10;49.50;;;;;;6274058;22;20027;-79
2022/09/22 12:49:15;;;;;;;5.95;2.83;;;29.30;49.10;;;;;;6273989;22;20030;-77
2022/09/22 12:51:41;;;;;;;8.35;2.88;;;28.80;49.80;;;;;;6275317;22;20551;-76
2022/09/22 12:54:22;;;;;;;7.75;2.97;;;29.50;49.60;;;;;;6274223;22;20041;-76
2022/09/22 12:57:20;;;;;;;8.43;3.70;;;29.90;50.00;;;;;;6273674;22;20043;-76
2022/09/22 13:00:16;;;;;;;6.65;3.17;;;29.30;49.00;;;;;;6265111;22;20028;-76
2022/09/22 13:02:44;;;;;;;5.72;2.70;;;28.00;50.10;;;;;;6261719;22;20397;-77
2022/09/22 13:05:10;;;;;;;7.32;3.00;;;27.60;51.50;;;;;;6275655;22;20051;-77
2022/09/22 13:07:44;;;;;;;5.72;2.95;;;27.50;50.80;;;;;;6274197;22;20471;-76
2022/09/22 13:10:22;;;;;;;7.68;3.78;;;27.50;50.80;;;;;;6273841;22;20067;-76
2022/09/22 13:13:09;;;;;;;5.50;2.60;;;28.70;49.40;;;;;;6274166;22;20072;-78
2022/09/22 13:15:49;;;;;;;7.00;3.00;;;29.80;49.00;;;;;;6276251;22;20487;-77
2022/09/22 13:18:36;;;;;;;6.95;2.78;;;30.70;48.20;;;;;;6274091;22;20023;-76
2022/09/22 13:21:14;;;;;;;8.75;3.22;;;31.00;47.00;;;;;;6247952;22;20435;-76
2022/09/22 13:23:57;;;;;;;6.82;3.08;;;31.30;46.60;;;;;;6275498;22;20070;-77
2022/09/22 13:26:28;;;;;;;5.72;3.28;;;31.40;46.90;;;;;;6275630;22;20472;-77
2022/09/22 13:29:03;;;;;;;9.32;3.50;;;31.20;46.90;;;;;;6275153;22;20059;-77
2022/09/22 13:31:40;;;;;;;5.78;2.72;;;31.50;46.30;;;;;;6275644;22;20393;-77
2022/09/22 13:34:34;;;;;;;8.02;3.25;;;32.30;45.50;;;;;;6248386;22;20024;-77
2022/09/22 13:37:08;;;;;;;7.75;2.88;;;32.70;44.90;;;;;;6273753;22;20031;-78
2022/09/22 13:39:39;;;;;;;6.80;2.53;;;32.70;44.40;;;;;;6273982;22;20019;-78